sensor_id;sensor_type;location;lat;lon;timestamp;temperature;humidity
11532;DHT22;5822;51.000;5.874;2023-11-18T00:02:24;10.60;99.90
11532;DHT22;5822;51.000;5.874;2023-11-18T00:04:50;10.70;99.90
11532;DHT22;5822;51.000;5.874;2023-11-18T00:07:17;10.70;99.90
11532;DHT22;5822;51.000;5.874;2023-11-18T00:09:42;10.60;99.90
11532;DHT22;5822;51.000;5.874;2023-11-18T00:12:12;10.60;99.90
11532;DHT22;5822;51.000;5.874;2023-11-18T00:14:37;10.60;99.90
11532;DHT22;5822;51.000;5.874;2023-11-18T00:17:03;10.50;99.90
11532;DHT22;5822;51.000;5.874;2023-11-18T00:19:29;10.50;99.90
11532;DHT22;5822;51.000;5.874;2023-11-18T00:21:55;10.50;99.90
11532;DHT22;5822;51.000;5.874;2023-11-18T00:24:21;10.60;99.90
11532;DHT22;5822;51.000;5.874;2023-11-18T00:26:46;10.60;99.90
11532;DHT22;5822;51.000;5.874;2023-11-18T00:29:12;10.50;99.90
11532;DHT22;5822;51.000;5.874;2023-11-18T00:31:38;10.50;99.90
11532;DHT22;5822;51.000;5.874;2023-11-18T00:34:03;10.50;99.90
11532;DHT22;5822;51.000;5.874;2023-11-18T00:36:29;10.40;99.90
11532;DHT22;5822;51.000;5.874;2023-11-18T00:38:55;10.40;99.90
11532;DHT22;5822;51.000;5.874;2023-11-18T00:41:20;10.40;99.90
11532;DHT22;5822;51.000;5.874;2023-11-18T00:43:47;10.50;99.90
11532;DHT22;5822;51.000;5.874;2023-11-18T00:46:12;10.50;99.90
11532;DHT22;5822;51.000;5.874;2023-11-18T00:48:38;10.50;99.90
11532;DHT22;5822;51.000;5.874;2023-11-18T00:51:06;10.40;99.90
11532;DHT22;5822;51.000;5.874;2023-11-18T00:53:31;10.40;99.90
11532;DHT22;5822;51.000;5.874;2023-11-18T00:55:57;10.40;99.90
11532;DHT22;5822;51.000;5.874;2023-11-18T00:58:23;10.40;99.90
11532;DHT22;5822;51.000;5.874;2023-11-18T01:00:48;10.50;99.90
11532;DHT22;5822;51.000;5.874;2023-11-18T01:03:14;10.60;99.90
11532;DHT22;5822;51.000;5.874;2023-11-18T01:05:39;10.50;99.90
11532;DHT22;5822;51.000;5.874;2023-11-18T01:08:06;10.50;99.90
11532;DHT22;5822;51.000;5.874;2023-11-18T01:10:31;10.40;99.90
11532;DHT22;5822;51.000;5.874;2023-11-18T01:12:57;10.30;99.90
11532;DHT22;5822;51.000;5.874;2023-11-18T01:15:23;10.30;99.90
11532;DHT22;5822;51.000;5.874;2023-11-18T01:17:49;10.30;99.90
11532;DHT22;5822;51.000;5.874;2023-11-18T01:20:15;10.20;99.90
11532;DHT22;5822;51.000;5.874;2023-11-18T01:22:46;10.20;99.90
11532;DHT22;5822;51.000;5.874;2023-11-18T01:25:14;10.20;99.90
11532;DHT22;5822;51.000;5.874;2023-11-18T01:27:43;10.30;99.90
11532;DHT22;5822;51.000;5.874;2023-11-18T01:30:13;10.30;99.90
11532;DHT22;5822;51.000;5.874;2023-11-18T01:32:39;10.30;99.90
11532;DHT22;5822;51.000;5.874;2023-11-18T01:35:08;10.20;99.90
11532;DHT22;5822;51.000;5.874;2023-11-18T01:37:36;10.20;99.90
11532;DHT22;5822;51.000;5.874;2023-11-18T01:40:01;10.20;99.90
11532;DHT22;5822;51.000;5.874;2023-11-18T01:42:34;10.20;99.90
11532;DHT22;5822;51.000;5.874;2023-11-18T01:44:59;10.20;99.90
11532;DHT22;5822;51.000;5.874;2023-11-18T01:47:29;10.20;99.90
11532;DHT22;5822;51.000;5.874;2023-11-18T01:49:58;10.20;99.90
11532;DHT22;5822;51.000;5.874;2023-11-18T01:52:26;10.20;99.90
11532;DHT22;5822;51.000;5.874;2023-11-18T01:54:54;10.20;99.90
11532;DHT22;5822;51.000;5.874;2023-11-18T01:57:21;10.20;99.90
11532;DHT22;5822;51.000;5.874;2023-11-18T01:59:46;10.20;99.90
11532;DHT22;5822;51.000;5.874;2023-11-18T02:02:12;10.20;99.90
11532;DHT22;5822;51.000;5.874;2023-11-18T02:04:39;10.20;99.90
11532;DHT22;5822;51.000;5.874;2023-11-18T02:07:05;10.20;99.90
11532;DHT22;5822;51.000;5.874;2023-11-18T02:09:35;10.20;99.90
11532;DHT22;5822;51.000;5.874;2023-11-18T02:14:46;10.20;99.90
11532;DHT22;5822;51.000;5.874;2023-11-18T02:17:14;10.20;99.90
11532;DHT22;5822;51.000;5.874;2023-11-18T02:19:42;10.20;99.90
11532;DHT22;5822;51.000;5.874;2023-11-18T02:22:09;10.20;99.90
11532;DHT22;5822;51.000;5.874;2023-11-18T02:24:36;10.20;99.90
11532;DHT22;5822;51.000;5.874;2023-11-18T02:27:03;10.20;99.90
11532;DHT22;5822;51.000;5.874;2023-11-18T02:29:38;10.20;99.90
11532;DHT22;5822;51.000;5.874;2023-11-18T02:35:10;10.20;99.90
11532;DHT22;5822;51.000;5.874;2023-11-18T02:37:40;10.20;99.90
11532;DHT22;5822;51.000;5.874;2023-11-18T02:40:09;10.20;99.90
11532;DHT22;5822;51.000;5.874;2023-11-18T02:42:44;10.20;99.90
11532;DHT22;5822;51.000;5.874;2023-11-18T02:45:13;10.20;99.90
11532;DHT22;5822;51.000;5.874;2023-11-18T02:47:45;10.20;99.90
11532;DHT22;5822;51.000;5.874;2023-11-18T02:50:11;10.20;99.90
11532;DHT22;5822;51.000;5.874;2023-11-18T02:52:37;10.20;99.90
11532;DHT22;5822;51.000;5.874;2023-11-18T02:55:07;10.20;99.90
11532;DHT22;5822;51.000;5.874;2023-11-18T02:57:34;10.20;99.90
11532;DHT22;5822;51.000;5.874;2023-11-18T03:00:00;10.20;99.90
11532;DHT22;5822;51.000;5.874;2023-11-18T03:02:26;10.20;99.90
11532;DHT22;5822;51.000;5.874;2023-11-18T03:04:55;10.20;99.90
11532;DHT22;5822;51.000;5.874;2023-11-18T03:07:20;10.20;99.90
11532;DHT22;5822;51.000;5.874;2023-11-18T03:09:46;10.20;99.90
11532;DHT22;5822;51.000;5.874;2023-11-18T03:12:12;10.20;99.90
11532;DHT22;5822;51.000;5.874;2023-11-18T03:14:38;10.20;99.90
11532;DHT22;5822;51.000;5.874;2023-11-18T03:17:04;10.20;99.90
11532;DHT22;5822;51.000;5.874;2023-11-18T03:19:32;10.20;99.90
11532;DHT22;5822;51.000;5.874;2023-11-18T03:22:00;10.20;99.90
11532;DHT22;5822;51.000;5.874;2023-11-18T03:24:27;10.20;99.90
11532;DHT22;5822;51.000;5.874;2023-11-18T03:26:54;10.20;99.90
11532;DHT22;5822;51.000;5.874;2023-11-18T03:29:20;10.10;99.90
11532;DHT22;5822;51.000;5.874;2023-11-18T03:31:46;10.20;99.90
11532;DHT22;5822;51.000;5.874;2023-11-18T03:34:14;10.20;99.90
11532;DHT22;5822;51.000;5.874;2023-11-18T03:36:40;10.20;99.90
11532;DHT22;5822;51.000;5.874;2023-11-18T03:39:06;10.20;99.90
11532;DHT22;5822;51.000;5.874;2023-11-18T03:41:32;10.20;99.90
11532;DHT22;5822;51.000;5.874;2023-11-18T03:43:57;10.20;99.90
11532;DHT22;5822;51.000;5.874;2023-11-18T03:46:23;10.20;99.90
11532;DHT22;5822;51.000;5.874;2023-11-18T03:48:49;10.20;99.90
11532;DHT22;5822;51.000;5.874;2023-11-18T03:51:14;10.20;99.90
11532;DHT22;5822;51.000;5.874;2023-11-18T03:53:43;10.20;99.90
11532;DHT22;5822;51.000;5.874;2023-11-18T03:56:08;10.20;99.90
11532;DHT22;5822;51.000;5.874;2023-11-18T03:58:34;10.20;99.90
11532;DHT22;5822;51.000;5.874;2023-11-18T04:01:01;10.20;99.90
11532;DHT22;5822;51.000;5.874;2023-11-18T04:03:27;10.20;99.90
11532;DHT22;5822;51.000;5.874;2023-11-18T04:05:52;10.30;99.90
11532;DHT22;5822;51.000;5.874;2023-11-18T04:08:18;10.30;99.90
11532;DHT22;5822;51.000;5.874;2023-11-18T04:10:44;10.30;99.90
11532;DHT22;5822;51.000;5.874;2023-11-18T04:13:09;10.20;99.90
11532;DHT22;5822;51.000;5.874;2023-11-18T04:15:35;10.20;99.90
11532;DHT22;5822;51.000;5.874;2023-11-18T04:18:01;10.20;99.90
11532;DHT22;5822;51.000;5.874;2023-11-18T04:20:27;10.20;99.90
11532;DHT22;5822;51.000;5.874;2023-11-18T04:22:52;10.20;99.90
11532;DHT22;5822;51.000;5.874;2023-11-18T04:25:19;10.20;99.90
11532;DHT22;5822;51.000;5.874;2023-11-18T04:27:46;10.20;99.90
11532;DHT22;5822;51.000;5.874;2023-11-18T04:30:12;10.20;99.90
11532;DHT22;5822;51.000;5.874;2023-11-18T04:32:38;10.20;99.90
11532;DHT22;5822;51.000;5.874;2023-11-18T04:35:04;10.20;99.90
11532;DHT22;5822;51.000;5.874;2023-11-18T04:37:33;10.20;99.90
11532;DHT22;5822;51.000;5.874;2023-11-18T04:39:59;10.20;99.90
11532;DHT22;5822;51.000;5.874;2023-11-18T04:42:25;10.30;99.90
11532;DHT22;5822;51.000;5.874;2023-11-18T04:44:51;10.30;99.90
11532;DHT22;5822;51.000;5.874;2023-11-18T04:47:16;10.20;99.90
11532;DHT22;5822;51.000;5.874;2023-11-18T04:49:44;10.20;99.90
11532;DHT22;5822;51.000;5.874;2023-11-18T04:52:09;10.20;99.90
11532;DHT22;5822;51.000;5.874;2023-11-18T04:54:36;10.30;99.90
11532;DHT22;5822;51.000;5.874;2023-11-18T04:57:01;10.20;99.90
11532;DHT22;5822;51.000;5.874;2023-11-18T04:59:27;10.30;99.90
11532;DHT22;5822;51.000;5.874;2023-11-18T05:01:53;10.30;99.90
11532;DHT22;5822;51.000;5.874;2023-11-18T05:04:19;10.30;99.90
11532;DHT22;5822;51.000;5.874;2023-11-18T05:06:44;10.30;99.90
11532;DHT22;5822;51.000;5.874;2023-11-18T05:09:10;10.30;99.90
11532;DHT22;5822;51.000;5.874;2023-11-18T05:11:36;10.30;99.90
11532;DHT22;5822;51.000;5.874;2023-11-18T05:14:02;10.30;99.90
11532;DHT22;5822;51.000;5.874;2023-11-18T05:16:29;10.30;99.90
11532;DHT22;5822;51.000;5.874;2023-11-18T05:18:55;10.30;99.90
11532;DHT22;5822;51.000;5.874;2023-11-18T05:21:21;10.30;99.90
11532;DHT22;5822;51.000;5.874;2023-11-18T05:23:47;10.30;99.90
11532;DHT22;5822;51.000;5.874;2023-11-18T05:26:13;10.20;99.90
11532;DHT22;5822;51.000;5.874;2023-11-18T05:28:39;10.20;99.90
11532;DHT22;5822;51.000;5.874;2023-11-18T05:31:05;10.30;99.90
11532;DHT22;5822;51.000;5.874;2023-11-18T05:33:31;10.30;99.90
11532;DHT22;5822;51.000;5.874;2023-11-18T05:35:59;10.20;99.90
11532;DHT22;5822;51.000;5.874;2023-11-18T05:38:25;10.20;99.90
11532;DHT22;5822;51.000;5.874;2023-11-18T05:40:53;10.20;99.90
11532;DHT22;5822;51.000;5.874;2023-11-18T05:43:26;10.20;99.90
11532;DHT22;5822;51.000;5.874;2023-11-18T05:45:57;10.20;99.90
11532;DHT22;5822;51.000;5.874;2023-11-18T05:48:45;10.20;99.90
11532;DHT22;5822;51.000;5.874;2023-11-18T05:51:11;10.20;99.90
11532;DHT22;5822;51.000;5.874;2023-11-18T05:53:43;10.30;99.90
11532;DHT22;5822;51.000;5.874;2023-11-18T05:56:11;10.30;99.90
11532;DHT22;5822;51.000;5.874;2023-11-18T05:58:37;10.30;99.90
11532;DHT22;5822;51.000;5.874;2023-11-18T06:01:04;10.30;99.90
11532;DHT22;5822;51.000;5.874;2023-11-18T06:03:30;10.30;99.90
11532;DHT22;5822;51.000;5.874;2023-11-18T06:05:56;10.30;99.90
11532;DHT22;5822;51.000;5.874;2023-11-18T06:08:22;10.30;99.90
11532;DHT22;5822;51.000;5.874;2023-11-18T06:10:48;10.30;99.90
11532;DHT22;5822;51.000;5.874;2023-11-18T06:13:14;10.30;99.90
11532;DHT22;5822;51.000;5.874;2023-11-18T06:15:42;10.40;99.90
11532;DHT22;5822;51.000;5.874;2023-11-18T06:18:08;10.30;99.90
11532;DHT22;5822;51.000;5.874;2023-11-18T06:20:34;10.30;99.90
11532;DHT22;5822;51.000;5.874;2023-11-18T06:23:01;10.40;99.90
11532;DHT22;5822;51.000;5.874;2023-11-18T06:25:26;10.30;99.90
11532;DHT22;5822;51.000;5.874;2023-11-18T06:27:52;10.40;99.90
11532;DHT22;5822;51.000;5.874;2023-11-18T06:30:20;10.40;99.90
11532;DHT22;5822;51.000;5.874;2023-11-18T06:32:48;10.40;99.90
11532;DHT22;5822;51.000;5.874;2023-11-18T06:35:13;10.40;99.90
11532;DHT22;5822;51.000;5.874;2023-11-18T06:37:40;10.40;99.90
11532;DHT22;5822;51.000;5.874;2023-11-18T06:40:06;10.40;99.90
11532;DHT22;5822;51.000;5.874;2023-11-18T06:42:44;10.40;99.90
11532;DHT22;5822;51.000;5.874;2023-11-18T06:45:13;10.50;99.90
11532;DHT22;5822;51.000;5.874;2023-11-18T06:47:39;10.50;99.90
11532;DHT22;5822;51.000;5.874;2023-11-18T06:50:09;10.50;99.90
11532;DHT22;5822;51.000;5.874;2023-11-18T06:52:37;10.60;99.90
11532;DHT22;5822;51.000;5.874;2023-11-18T06:55:04;10.60;99.90
11532;DHT22;5822;51.000;5.874;2023-11-18T06:57:29;10.60;99.90
11532;DHT22;5822;51.000;5.874;2023-11-18T06:59:55;10.60;99.90
11532;DHT22;5822;51.000;5.874;2023-11-18T07:02:21;10.60;99.90
11532;DHT22;5822;51.000;5.874;2023-11-18T07:04:46;10.60;99.90
11532;DHT22;5822;51.000;5.874;2023-11-18T07:07:12;10.60;99.90
11532;DHT22;5822;51.000;5.874;2023-11-18T07:09:39;10.60;99.90
11532;DHT22;5822;51.000;5.874;2023-11-18T07:12:05;10.60;99.90
11532;DHT22;5822;51.000;5.874;2023-11-18T07:14:31;10.80;99.90
11532;DHT22;5822;51.000;5.874;2023-11-18T07:16:56;10.70;99.90
11532;DHT22;5822;51.000;5.874;2023-11-18T07:19:22;10.70;99.90
11532;DHT22;5822;51.000;5.874;2023-11-18T07:21:49;10.60;99.90
11532;DHT22;5822;51.000;5.874;2023-11-18T07:24:16;10.60;99.90
11532;DHT22;5822;51.000;5.874;2023-11-18T07:26:42;10.60;99.90
11532;DHT22;5822;51.000;5.874;2023-11-18T07:29:09;10.60;99.90
11532;DHT22;5822;51.000;5.874;2023-11-18T07:31:35;10.60;99.90
11532;DHT22;5822;51.000;5.874;2023-11-18T07:34:05;10.60;99.90
11532;DHT22;5822;51.000;5.874;2023-11-18T07:36:31;10.60;99.90
11532;DHT22;5822;51.000;5.874;2023-11-18T07:38:58;10.60;99.90
11532;DHT22;5822;51.000;5.874;2023-11-18T07:41:27;10.60;99.90
11532;DHT22;5822;51.000;5.874;2023-11-18T07:43:55;10.60;99.90
11532;DHT22;5822;51.000;5.874;2023-11-18T07:46:24;10.70;99.90
11532;DHT22;5822;51.000;5.874;2023-11-18T07:48:53;10.70;99.90
11532;DHT22;5822;51.000;5.874;2023-11-18T07:51:19;10.70;99.90
11532;DHT22;5822;51.000;5.874;2023-11-18T07:53:48;10.70;99.90
11532;DHT22;5822;51.000;5.874;2023-11-18T07:56:14;10.70;99.90
11532;DHT22;5822;51.000;5.874;2023-11-18T07:58:43;10.70;99.90
11532;DHT22;5822;51.000;5.874;2023-11-18T08:01:11;10.80;99.90
11532;DHT22;5822;51.000;5.874;2023-11-18T08:03:37;10.70;99.90
11532;DHT22;5822;51.000;5.874;2023-11-18T08:06:04;10.70;99.90
11532;DHT22;5822;51.000;5.874;2023-11-18T08:08:35;10.70;99.90
11532;DHT22;5822;51.000;5.874;2023-11-18T08:11:08;10.80;99.90
11532;DHT22;5822;51.000;5.874;2023-11-18T08:13:35;10.80;99.90
11532;DHT22;5822;51.000;5.874;2023-11-18T08:16:04;10.80;99.90
11532;DHT22;5822;51.000;5.874;2023-11-18T08:18:29;11.10;99.90
11532;DHT22;5822;51.000;5.874;2023-11-18T08:20:56;10.70;99.90
11532;DHT22;5822;51.000;5.874;2023-11-18T08:23:22;10.90;99.90
11532;DHT22;5822;51.000;5.874;2023-11-18T08:25:48;11.00;99.90
11532;DHT22;5822;51.000;5.874;2023-11-18T08:28:16;11.00;99.90
11532;DHT22;5822;51.000;5.874;2023-11-18T08:30:41;11.00;99.90
11532;DHT22;5822;51.000;5.874;2023-11-18T08:33:07;11.10;99.90
11532;DHT22;5822;51.000;5.874;2023-11-18T08:35:36;11.10;99.90
11532;DHT22;5822;51.000;5.874;2023-11-18T08:38:02;11.10;99.90
11532;DHT22;5822;51.000;5.874;2023-11-18T08:40:30;11.10;99.90
11532;DHT22;5822;51.000;5.874;2023-11-18T08:42:55;11.10;99.90
11532;DHT22;5822;51.000;5.874;2023-11-18T08:45:26;11.00;99.90
11532;DHT22;5822;51.000;5.874;2023-11-18T08:48:01;11.00;99.90
11532;DHT22;5822;51.000;5.874;2023-11-18T08:50:28;11.10;99.90
11532;DHT22;5822;51.000;5.874;2023-11-18T08:52:55;11.10;99.90
11532;DHT22;5822;51.000;5.874;2023-11-18T08:55:27;11.00;99.90
11532;DHT22;5822;51.000;5.874;2023-11-18T08:58:07;11.10;99.90
11532;DHT22;5822;51.000;5.874;2023-11-18T09:03:15;11.10;99.90
11532;DHT22;5822;51.000;5.874;2023-11-18T09:05:51;11.10;99.90
11532;DHT22;5822;51.000;5.874;2023-11-18T09:08:31;11.20;99.90
11532;DHT22;5822;51.000;5.874;2023-11-18T09:11:12;11.10;99.90
11532;DHT22;5822;51.000;5.874;2023-11-18T09:13:46;11.10;99.90
11532;DHT22;5822;51.000;5.874;2023-11-18T09:16:20;11.20;99.90
11532;DHT22;5822;51.000;5.874;2023-11-18T09:18:51;11.20;99.90
11532;DHT22;5822;51.000;5.874;2023-11-18T09:21:17;11.30;99.90
11532;DHT22;5822;51.000;5.874;2023-11-18T09:23:50;11.20;99.90
11532;DHT22;5822;51.000;5.874;2023-11-18T09:26:17;11.30;99.90
11532;DHT22;5822;51.000;5.874;2023-11-18T09:28:43;11.20;99.90
11532;DHT22;5822;51.000;5.874;2023-11-18T09:31:10;11.30;99.90
11532;DHT22;5822;51.000;5.874;2023-11-18T09:33:40;11.30;99.90
11532;DHT22;5822;51.000;5.874;2023-11-18T09:36:12;11.20;99.90
11532;DHT22;5822;51.000;5.874;2023-11-18T09:38:39;11.20;99.90
11532;DHT22;5822;51.000;5.874;2023-11-18T09:41:10;11.20;99.90
11532;DHT22;5822;51.000;5.874;2023-11-18T09:43:40;11.30;99.90
11532;DHT22;5822;51.000;5.874;2023-11-18T09:46:16;11.30;99.90
11532;DHT22;5822;51.000;5.874;2023-11-18T09:48:47;11.20;99.90
11532;DHT22;5822;51.000;5.874;2023-11-18T09:51:23;11.30;99.90
11532;DHT22;5822;51.000;5.874;2023-11-18T09:53:53;11.30;99.90
11532;DHT22;5822;51.000;5.874;2023-11-18T09:59:32;11.20;99.90
11532;DHT22;5822;51.000;5.874;2023-11-18T10:02:03;11.20;99.90
11532;DHT22;5822;51.000;5.874;2023-11-18T10:04:39;11.20;99.90
11532;DHT22;5822;51.000;5.874;2023-11-18T10:07:09;11.20;99.90
11532;DHT22;5822;51.000;5.874;2023-11-18T10:09:36;11.20;99.90
11532;DHT22;5822;51.000;5.874;2023-11-18T10:12:05;11.10;99.90
11532;DHT22;5822;51.000;5.874;2023-11-18T10:14:37;11.10;99.90
11532;DHT22;5822;51.000;5.874;2023-11-18T10:17:07;11.10;99.90
11532;DHT22;5822;51.000;5.874;2023-11-18T10:22:28;11.10;99.90
11532;DHT22;5822;51.000;5.874;2023-11-18T10:24:55;11.10;99.90
11532;DHT22;5822;51.000;5.874;2023-11-18T10:27:26;11.20;99.90
11532;DHT22;5822;51.000;5.874;2023-11-18T10:30:04;11.20;99.90
11532;DHT22;5822;51.000;5.874;2023-11-18T10:32:30;11.10;99.90
11532;DHT22;5822;51.000;5.874;2023-11-18T10:35:01;11.20;99.90
11532;DHT22;5822;51.000;5.874;2023-11-18T10:37:27;11.20;99.90
11532;DHT22;5822;51.000;5.874;2023-11-18T10:39:56;11.20;99.90
11532;DHT22;5822;51.000;5.874;2023-11-18T10:42:26;11.20;99.90
11532;DHT22;5822;51.000;5.874;2023-11-18T10:44:59;11.20;99.90
11532;DHT22;5822;51.000;5.874;2023-11-18T10:47:29;11.20;99.90
11532;DHT22;5822;51.000;5.874;2023-11-18T10:49:57;11.20;99.90
11532;DHT22;5822;51.000;5.874;2023-11-18T10:52:26;11.30;99.90
11532;DHT22;5822;51.000;5.874;2023-11-18T10:54:56;11.30;99.90
11532;DHT22;5822;51.000;5.874;2023-11-18T10:57:25;11.30;99.90
11532;DHT22;5822;51.000;5.874;2023-11-18T11:00:02;11.30;99.90
11532;DHT22;5822;51.000;5.874;2023-11-18T11:02:32;11.40;99.90
11532;DHT22;5822;51.000;5.874;2023-11-18T11:05:03;11.50;99.90
11532;DHT22;5822;51.000;5.874;2023-11-18T11:07:35;11.50;99.90
11532;DHT22;5822;51.000;5.874;2023-11-18T11:10:03;11.50;99.90
11532;DHT22;5822;51.000;5.874;2023-11-18T11:12:39;11.50;99.90
11532;DHT22;5822;51.000;5.874;2023-11-18T11:15:20;11.50;99.90
11532;DHT22;5822;51.000;5.874;2023-11-18T11:17:54;11.50;99.90
11532;DHT22;5822;51.000;5.874;2023-11-18T11:20:32;11.50;99.90
11532;DHT22;5822;51.000;5.874;2023-11-18T11:23:01;11.60;99.90
11532;DHT22;5822;51.000;5.874;2023-11-18T11:25:43;11.60;99.90
11532;DHT22;5822;51.000;5.874;2023-11-18T11:28:21;11.60;99.90
11532;DHT22;5822;51.000;5.874;2023-11-18T11:33:29;11.70;99.90
11532;DHT22;5822;51.000;5.874;2023-11-18T11:36:02;11.70;99.90
11532;DHT22;5822;51.000;5.874;2023-11-18T11:38:34;11.70;99.90
11532;DHT22;5822;51.000;5.874;2023-11-18T11:41:03;11.60;99.90
11532;DHT22;5822;51.000;5.874;2023-11-18T11:43:31;11.60;99.90
11532;DHT22;5822;51.000;5.874;2023-11-18T11:46:01;11.70;99.90
11532;DHT22;5822;51.000;5.874;2023-11-18T11:48:30;11.70;99.90
11532;DHT22;5822;51.000;5.874;2023-11-18T11:51:32;11.70;99.90
11532;DHT22;5822;51.000;5.874;2023-11-18T11:54:09;11.70;99.90
11532;DHT22;5822;51.000;5.874;2023-11-18T11:56:48;11.80;99.90
11532;DHT22;5822;51.000;5.874;2023-11-18T11:59:54;11.80;99.90
11532;DHT22;5822;51.000;5.874;2023-11-18T12:02:29;11.70;99.90
11532;DHT22;5822;51.000;5.874;2023-11-18T12:04:58;11.50;99.90
11532;DHT22;5822;51.000;5.874;2023-11-18T12:07:27;11.70;99.90
11532;DHT22;5822;51.000;5.874;2023-11-18T12:09:59;11.60;99.90
11532;DHT22;5822;51.000;5.874;2023-11-18T12:12:27;11.60;99.90
11532;DHT22;5822;51.000;5.874;2023-11-18T12:14:59;11.60;99.90
11532;DHT22;5822;51.000;5.874;2023-11-18T12:20:40;11.50;99.90
11532;DHT22;5822;51.000;5.874;2023-11-18T12:23:23;11.50;99.90
11532;DHT22;5822;51.000;5.874;2023-11-18T12:25:56;11.40;99.90
11532;DHT22;5822;51.000;5.874;2023-11-18T12:28:33;11.40;99.90
11532;DHT22;5822;51.000;5.874;2023-11-18T12:31:11;11.40;99.90
11532;DHT22;5822;51.000;5.874;2023-11-18T12:36:33;11.50;99.90
11532;DHT22;5822;51.000;5.874;2023-11-18T12:42:24;11.50;99.90
11532;DHT22;5822;51.000;5.874;2023-11-18T12:47:28;11.60;99.90
11532;DHT22;5822;51.000;5.874;2023-11-18T12:49:56;11.40;99.90
11532;DHT22;5822;51.000;5.874;2023-11-18T12:52:22;11.40;99.90
11532;DHT22;5822;51.000;5.874;2023-11-18T12:54:49;11.40;99.90
11532;DHT22;5822;51.000;5.874;2023-11-18T12:57:26;11.40;99.90
11532;DHT22;5822;51.000;5.874;2023-11-18T12:59:56;11.40;99.90
11532;DHT22;5822;51.000;5.874;2023-11-18T13:02:22;11.40;99.90
11532;DHT22;5822;51.000;5.874;2023-11-18T13:04:49;11.40;99.90
11532;DHT22;5822;51.000;5.874;2023-11-18T13:07:18;11.30;99.90
11532;DHT22;5822;51.000;5.874;2023-11-18T13:09:45;11.30;99.90
11532;DHT22;5822;51.000;5.874;2023-11-18T13:12:12;11.30;99.90
11532;DHT22;5822;51.000;5.874;2023-11-18T13:14:42;11.30;99.90
11532;DHT22;5822;51.000;5.874;2023-11-18T13:17:15;11.30;99.90
11532;DHT22;5822;51.000;5.874;2023-11-18T13:19:42;11.40;99.90
11532;DHT22;5822;51.000;5.874;2023-11-18T13:22:10;11.30;99.90
11532;DHT22;5822;51.000;5.874;2023-11-18T13:24:38;11.30;99.90
11532;DHT22;5822;51.000;5.874;2023-11-18T13:27:09;11.30;99.90
11532;DHT22;5822;51.000;5.874;2023-11-18T13:29:37;11.30;99.90
11532;DHT22;5822;51.000;5.874;2023-11-18T13:32:06;11.30;99.90
11532;DHT22;5822;51.000;5.874;2023-11-18T13:34:35;11.30;99.90
11532;DHT22;5822;51.000;5.874;2023-11-18T13:37:03;11.30;99.90
11532;DHT22;5822;51.000;5.874;2023-11-18T13:39:31;11.30;99.90
11532;DHT22;5822;51.000;5.874;2023-11-18T13:41:57;11.30;99.90
11532;DHT22;5822;51.000;5.874;2023-11-18T13:44:35;11.30;99.90
11532;DHT22;5822;51.000;5.874;2023-11-18T13:47:04;11.20;99.90
11532;DHT22;5822;51.000;5.874;2023-11-18T13:49:33;11.10;99.90
11532;DHT22;5822;51.000;5.874;2023-11-18T13:52:02;11.20;99.90
11532;DHT22;5822;51.000;5.874;2023-11-18T13:54:32;11.20;99.90
11532;DHT22;5822;51.000;5.874;2023-11-18T13:56:58;11.20;99.90
11532;DHT22;5822;51.000;5.874;2023-11-18T13:59:27;11.30;99.90
11532;DHT22;5822;51.000;5.874;2023-11-18T14:01:57;11.30;99.90
11532;DHT22;5822;51.000;5.874;2023-11-18T14:04:24;11.30;99.90
11532;DHT22;5822;51.000;5.874;2023-11-18T14:06:53;11.30;99.90
11532;DHT22;5822;51.000;5.874;2023-11-18T14:09:19;11.20;99.90
11532;DHT22;5822;51.000;5.874;2023-11-18T14:11:50;11.20;99.90
11532;DHT22;5822;51.000;5.874;2023-11-18T14:14:15;11.20;99.90
11532;DHT22;5822;51.000;5.874;2023-11-18T14:16:41;11.20;99.90
11532;DHT22;5822;51.000;5.874;2023-11-18T14:19:07;11.20;99.90
11532;DHT22;5822;51.000;5.874;2023-11-18T14:21:33;11.20;99.90
11532;DHT22;5822;51.000;5.874;2023-11-18T14:23:58;11.20;99.90
11532;DHT22;5822;51.000;5.874;2023-11-18T14:26:28;11.10;99.90
11532;DHT22;5822;51.000;5.874;2023-11-18T14:28:56;11.20;99.90
11532;DHT22;5822;51.000;5.874;2023-11-18T14:31:22;11.30;99.90
11532;DHT22;5822;51.000;5.874;2023-11-18T14:33:48;11.40;99.90
11532;DHT22;5822;51.000;5.874;2023-11-18T14:36:14;11.30;99.90
11532;DHT22;5822;51.000;5.874;2023-11-18T14:38:40;11.30;99.90
11532;DHT22;5822;51.000;5.874;2023-11-18T14:41:06;11.30;99.90
11532;DHT22;5822;51.000;5.874;2023-11-18T14:43:33;11.30;99.90
11532;DHT22;5822;51.000;5.874;2023-11-18T14:46:02;11.30;99.90
11532;DHT22;5822;51.000;5.874;2023-11-18T14:48:31;11.30;99.90
11532;DHT22;5822;51.000;5.874;2023-11-18T14:50:57;11.40;99.90
11532;DHT22;5822;51.000;5.874;2023-11-18T14:53:22;11.40;99.90
11532;DHT22;5822;51.000;5.874;2023-11-18T14:55:48;11.30;99.90
11532;DHT22;5822;51.000;5.874;2023-11-18T14:58:14;11.30;99.90
11532;DHT22;5822;51.000;5.874;2023-11-18T15:00:40;11.30;99.90
11532;DHT22;5822;51.000;5.874;2023-11-18T15:03:08;11.30;99.90
11532;DHT22;5822;51.000;5.874;2023-11-18T15:05:34;11.40;99.90
11532;DHT22;5822;51.000;5.874;2023-11-18T15:08:00;11.40;99.90
11532;DHT22;5822;51.000;5.874;2023-11-18T15:10:27;11.40;99.90
11532;DHT22;5822;51.000;5.874;2023-11-18T15:12:54;11.30;99.90
11532;DHT22;5822;51.000;5.874;2023-11-18T15:15:21;11.40;99.90
11532;DHT22;5822;51.000;5.874;2023-11-18T15:17:47;11.40;99.90
11532;DHT22;5822;51.000;5.874;2023-11-18T15:20:17;11.40;99.90
11532;DHT22;5822;51.000;5.874;2023-11-18T15:22:44;11.40;99.90
11532;DHT22;5822;51.000;5.874;2023-11-18T15:25:11;11.40;99.90
11532;DHT22;5822;51.000;5.874;2023-11-18T15:27:39;11.40;99.90
11532;DHT22;5822;51.000;5.874;2023-11-18T15:30:07;11.40;99.90
11532;DHT22;5822;51.000;5.874;2023-11-18T15:32:36;11.60;99.90
11532;DHT22;5822;51.000;5.874;2023-11-18T15:35:02;11.50;99.90
11532;DHT22;5822;51.000;5.874;2023-11-18T15:37:27;11.50;99.90
11532;DHT22;5822;51.000;5.874;2023-11-18T15:39:54;11.50;99.90
11532;DHT22;5822;51.000;5.874;2023-11-18T15:42:20;11.60;99.90
11532;DHT22;5822;51.000;5.874;2023-11-18T15:44:46;11.60;99.90
11532;DHT22;5822;51.000;5.874;2023-11-18T15:47:12;11.50;99.90
11532;DHT22;5822;51.000;5.874;2023-11-18T15:49:39;11.50;99.90
11532;DHT22;5822;51.000;5.874;2023-11-18T15:52:05;11.50;99.90
11532;DHT22;5822;51.000;5.874;2023-11-18T15:54:33;11.50;99.90
11532;DHT22;5822;51.000;5.874;2023-11-18T15:56:58;11.50;99.90
11532;DHT22;5822;51.000;5.874;2023-11-18T15:59:24;11.50;99.90
11532;DHT22;5822;51.000;5.874;2023-11-18T16:01:51;11.50;99.90
11532;DHT22;5822;51.000;5.874;2023-11-18T16:04:17;11.60;99.90
11532;DHT22;5822;51.000;5.874;2023-11-18T16:06:43;11.50;99.90
11532;DHT22;5822;51.000;5.874;2023-11-18T16:09:08;11.60;99.90
11532;DHT22;5822;51.000;5.874;2023-11-18T16:11:37;11.50;99.90
11532;DHT22;5822;51.000;5.874;2023-11-18T16:14:03;11.60;99.90
11532;DHT22;5822;51.000;5.874;2023-11-18T16:16:28;11.50;99.90
11532;DHT22;5822;51.000;5.874;2023-11-18T16:18:54;11.50;99.90
11532;DHT22;5822;51.000;5.874;2023-11-18T16:21:20;11.60;99.90